Time;durP1;ratioP1;P1;durP2;ratioP2;P2;SDS_P1;SDS_P2;PMS_P1;PMS_P2;Temp;Humidity;BMP_temperature;BMP_pressure;BME280_temperature;BME280_humidity;BME280_pressure;Samples;Min_cycle;Max_cycle;Signal;HPM_P1;HPM_P2
2021/06/29 00:02:18;;;;;;;12.78;5.95;;;;;;;21.41;71.14;100893.21;1779962;78;20870;-58
2021/06/29 00:04:47;;;;;;;9.73;5.67;;;;;;;21.44;70.74;100890.23;1772623;78;20925;-57
2021/06/29 00:07:14;;;;;;;9.05;5.85;;;;;;;21.45;70.38;100891.97;1781705;78;21651;-60
2021/06/29 00:09:41;;;;;;;7.40;5.80;;;;;;;21.46;69.75;100881.44;1780927;78;20988;-59
2021/06/29 00:12:09;;;;;;;13.22;6.20;;;;;;;21.51;69.17;100878.35;1780033;78;21497;-59
2021/06/29 00:14:40;;;;;;;12.25;6.30;;;;;;;21.56;69.13;100884.81;1782065;78;21831;-59
2021/06/29 00:17:10;;;;;;;9.65;6.70;;;;;;;21.57;70.16;100883.30;1782488;78;21020;-59
2021/06/29 00:19:37;;;;;;;13.30;7.42;;;;;;;21.54;71.41;100890.38;1779735;78;21397;-58
2021/06/29 00:22:06;;;;;;;16.73;7.50;;;;;;;21.51;72.26;100878.35;1778616;79;21044;-60
2021/06/29 00:24:33;;;;;;;12.53;7.10;;;;;;;21.50;72.82;100885.28;1778418;78;21000;-58
2021/06/29 00:27:00;;;;;;;9.60;7.05;;;;;;;21.45;73.17;100881.06;1781688;78;21422;-59
2021/06/29 00:29:26;;;;;;;10.90;6.83;;;;;;;21.40;73.63;100875.59;1782035;78;22381;-59
2021/06/29 00:31:53;;;;;;;17.98;7.28;;;;;;;21.35;74.09;100870.52;1782881;78;21795;-58
2021/06/29 00:34:19;;;;;;;17.05;7.50;;;;;;;21.30;74.45;100867.27;1781954;78;21496;-59
2021/06/29 00:36:46;;;;;;;10.40;7.12;;;;;;;21.27;74.97;100868.88;1784755;78;21451;-59
2021/06/29 00:39:13;;;;;;;8.38;5.97;;;;;;;21.25;75.23;100870.86;1781940;78;20957;-58
2021/06/29 00:41:40;;;;;;;13.00;5.83;;;;;;;21.22;74.42;100871.10;1760737;80;21421;-58
2021/06/29 00:44:10;;;;;;;10.78;6.67;;;;;;;21.18;73.59;100871.34;1760227;80;21543;-58
2021/06/29 00:46:44;;;;;;;11.15;6.62;;;;;;;21.18;73.62;100873.19;1758978;79;21486;-60
2021/06/29 00:49:08;;;;;;;14.45;7.62;;;;;;;21.17;73.44;100872.81;1776321;79;21517;-58
2021/06/29 00:51:35;;;;;;;13.83;7.40;;;;;;;21.16;74.39;100870.60;1760150;80;21038;-59
2021/06/29 00:54:02;;;;;;;16.12;7.67;;;;;;;21.12;75.16;100869.11;1765248;80;21417;-58
2021/06/29 00:56:32;;;;;;;13.93;7.12;;;;;;;21.09;75.80;100869.32;1770087;80;21403;-59
2021/06/29 00:58:59;;;;;;;10.45;6.75;;;;;;;21.06;75.72;100865.47;1758860;80;20989;-60
2021/06/29 01:01:29;;;;;;;9.05;6.15;;;;;;;21.01;74.92;100867.22;1752026;80;21691;-59
2021/06/29 01:03:56;;;;;;;9.35;6.33;;;;;;;20.98;72.28;100860.62;1776630;78;21048;-59
2021/06/29 01:06:23;;;;;;;10.25;6.70;;;;;;;21.08;70.57;100864.86;1755686;80;21459;-60
2021/06/29 01:08:49;;;;;;;11.97;7.92;;;;;;;21.18;69.91;100863.17;1761903;80;21075;-58
2021/06/29 01:11:16;;;;;;;14.43;7.67;;;;;;;21.24;69.43;100863.19;1763944;80;20874;-60
2021/06/29 01:13:45;;;;;;;15.10;7.17;;;;;;;21.28;69.87;100865.16;1771023;80;21410;-59
2021/06/29 01:16:12;;;;;;;17.25;7.72;;;;;;;21.26;70.45;100861.20;1713581;82;21064;-59
2021/06/29 01:18:41;;;;;;;15.65;7.75;;;;;;;21.25;70.91;100855.86;1755277;80;21024;-59
2021/06/29 01:21:15;;;;;;;11.60;7.10;;;;;;;21.22;71.93;100857.47;1761556;80;21154;-58
2021/06/29 01:23:45;;;;;;;17.75;8.13;;;;;;;21.15;72.51;100852.51;1764631;79;21076;-58
2021/06/29 01:26:26;;;;;;;10.38;7.10;;;;;;;21.07;72.77;100854.95;1758444;80;21056;-59
2021/06/29 01:28:52;;;;;;;17.47;8.30;;;;;;;20.96;74.21;100857.14;1758590;80;20973;-59
2021/06/29 01:31:15;;;;;;;10.93;7.47;;;;;;;20.96;74.21;100857.14;1760333;80;22100;-59
2021/06/29 01:33:41;;;;;;;12.33;7.28;;;;;;;20.94;73.36;100851.45;1774622;78;21059;-59
2021/06/29 01:36:07;;;;;;;13.62;7.40;;;;;;;20.93;72.66;100857.90;1773678;80;21450;-59
2021/06/29 01:38:34;;;;;;;10.95;7.42;;;;;;;20.94;72.49;100855.55;1751099;79;21549;-59
2021/06/29 01:41:01;;;;;;;12.50;7.65;;;;;;;20.94;72.94;100851.45;1754047;80;21044;-60
2021/06/29 01:43:31;;;;;;;16.05;10.43;;;;;;;20.93;72.19;100852.45;1739158;81;20969;-59
2021/06/29 01:45:56;;;;;;;12.40;8.83;;;;;;;20.93;71.29;100852.45;1764913;80;21607;-59
2021/06/29 01:48:24;;;;;;;20.10;9.70;;;;;;;20.95;71.24;100849.11;1775335;78;21083;-59
2021/06/29 01:50:53;;;;;;;16.17;9.53;;;;;;;20.95;71.15;100849.11;1763179;80;21006;-59
2021/06/29 01:53:20;;;;;;;18.42;11.25;;;;;;;20.95;70.92;100847.74;1759404;79;21016;-59
2021/06/29 01:55:47;;;;;;;20.37;13.65;;;;;;;20.97;70.75;100849.85;1763503;80;20937;-59
2021/06/29 01:58:22;;;;;;;12.90;9.23;;;;;;;20.98;70.73;100852.95;1774317;80;21091;-59
2021/06/29 02:00:42;;;;;;;16.20;9.03;;;;;;;21.00;71.45;100859.15;1759256;80;21000;-58
2021/06/29 02:03:09;;;;;;;16.27;9.43;;;;;;;20.98;72.22;100851.08;1773830;79;21008;-59
2021/06/29 02:05:35;;;;;;;25.60;17.12;;;;;;;20.98;72.14;100848.35;1755367;80;21411;-58
2021/06/29 02:08:02;;;;;;;22.80;13.43;;;;;;;21.02;71.49;100853.08;1761958;80;20959;-58
2021/06/29 02:10:30;;;;;;;12.55;9.60;;;;;;;21.10;71.03;100859.30;1763520;80;21068;-59
2021/06/29 02:12:58;;;;;;;12.43;8.73;;;;;;;21.14;71.62;100860.31;1709228;82;21065;-59
2021/06/29 02:15:25;;;;;;;18.55;8.88;;;;;;;21.15;72.07;100862.53;1777105;80;21117;-59
2021/06/29 02:17:51;;;;;;;17.80;9.28;;;;;;;21.15;72.45;100864.78;1764718;79;21017;-59
2021/06/29 02:20:18;;;;;;;14.63;8.68;;;;;;;21.15;73.30;100868.86;1772399;80;20936;-59
2021/06/29 02:22:46;;;;;;;16.17;8.95;;;;;;;21.13;74.67;100867.23;1764456;78;21043;-58
2021/06/29 02:25:13;;;;;;;16.05;9.60;;;;;;;21.11;75.32;100871.94;1771431;80;21423;-58
2021/06/29 02:27:40;;;;;;;16.85;9.98;;;;;;;21.12;76.20;100871.84;1758351;79;20894;-58
2021/06/29 02:30:08;;;;;;;18.00;10.05;;;;;;;21.14;76.76;100872.58;1762484;80;21001;-59
2021/06/29 02:32:34;;;;;;;16.25;10.23;;;;;;;21.18;77.09;100868.63;1774655;80;21016;-59
2021/06/29 02:35:05;;;;;;;18.20;9.88;;;;;;;21.25;77.38;100873.58;1773552;78;20969;-58
2021/06/29 02:37:31;;;;;;;28.00;11.80;;;;;;;21.32;77.27;100875.71;1767792;80;21676;-58
2021/06/29 02:39:57;;;;;;;17.10;10.75;;;;;;;21.39;77.30;100873.38;1766665;80;21046;-58
2021/06/29 02:42:24;;;;;;;17.25;10.65;;;;;;;21.44;77.24;100876.59;1769470;78;21333;-57
2021/06/29 02:44:51;;;;;;;22.22;10.95;;;;;;;21.47;77.02;100880.95;1770978;78;21139;-60
2021/06/29 02:47:17;;;;;;;16.62;9.50;;;;;;;21.51;76.57;100884.28;1767701;78;21759;-59
2021/06/29 02:49:44;;;;;;;16.27;10.08;;;;;;;21.56;75.77;100887.03;1767463;78;21429;-59
2021/06/29 02:52:10;;;;;;;16.32;10.58;;;;;;;21.65;75.52;100885.94;1773361;78;21375;-59
2021/06/29 02:54:37;;;;;;;18.15;10.58;;;;;;;21.71;74.63;100884.95;1771889;78;21883;-59
2021/06/29 02:57:04;;;;;;;16.57;10.72;;;;;;;21.77;74.53;100886.81;1772108;78;21096;-59
2021/06/29 02:59:31;;;;;;;28.57;14.35;;;;;;;21.79;74.37;100885.71;1770850;78;21079;-59
2021/06/29 03:01:57;;;;;;;17.45;11.63;;;;;;;21.83;74.18;100884.98;1771213;79;20900;-59
2021/06/29 03:04:24;;;;;;;32.30;25.27;;;;;;;21.86;73.74;100882.84;1775862;78;21334;-59
2021/06/29 03:06:51;;;;;;;40.03;27.45;;;;;;;21.92;73.24;100884.22;1769230;78;21064;-60
2021/06/29 03:09:17;;;;;;;36.80;23.95;;;;;;;22.00;72.30;100889.06;1770027;78;21089;-60
2021/06/29 03:11:44;;;;;;;32.88;25.20;;;;;;;22.07;72.00;100883.45;1766776;78;21633;-59
2021/06/29 03:14:10;;;;;;;36.15;24.67;;;;;;;22.14;71.40;100884.71;1774312;78;21013;-59
2021/06/29 03:16:37;;;;;;;31.85;23.90;;;;;;;22.22;71.05;100881.83;1772896;78;21006;-59
2021/06/29 03:19:04;;;;;;;29.87;22.22;;;;;;;22.28;70.02;100882.20;1768455;78;21012;-60
2021/06/29 03:21:31;;;;;;;26.45;13.80;;;;;;;22.38;70.10;100885.52;1767755;78;20989;-59
2021/06/29 03:23:57;;;;;;;18.80;12.40;;;;;;;22.46;70.33;100881.67;1772715;78;21403;-59
2021/06/29 03:26:24;;;;;;;14.00;10.20;;;;;;;22.52;70.11;100877.09;1770341;78;20906;-59
2021/06/29 03:28:51;;;;;;;14.68;9.35;;;;;;;22.59;69.68;100879.66;1769061;79;20923;-58
2021/06/29 03:31:17;;;;;;;20.88;10.50;;;;;;;22.66;68.83;100880.50;1773552;78;22185;-60
2021/06/29 03:33:44;;;;;;;19.05;10.98;;;;;;;22.76;67.75;100878.73;1771515;78;21135;-58
2021/06/29 03:36:11;;;;;;;23.73;16.27;;;;;;;22.88;67.06;100883.66;1773005;78;21859;-60
2021/06/29 03:38:38;;;;;;;51.25;40.60;;;;;;;23.01;66.77;100884.83;1766448;78;20973;-61
2021/06/29 03:41:04;;;;;;;66.82;42.93;;;;;;;23.14;66.27;100884.64;1771161;78;21280;-59
2021/06/29 03:43:34;;;;;;;36.63;25.75;;;;;;;23.25;65.82;100886.45;1768947;78;20905;-59
2021/06/29 03:46:01;;;;;;;21.37;14.60;;;;;;;23.34;65.78;100882.95;1772980;78;20876;-59
2021/06/29 03:48:27;;;;;;;20.62;10.38;;;;;;;23.44;65.78;100883.88;1774375;78;21097;-59
2021/06/29 03:50:54;;;;;;;14.40;9.08;;;;;;;23.53;65.46;100887.67;1769948;78;21012;-59
2021/06/29 03:53:20;;;;;;;16.05;8.93;;;;;;;23.60;65.30;100886.63;1769968;78;21501;-58
2021/06/29 03:55:47;;;;;;;18.05;8.78;;;;;;;23.65;65.05;100888.45;1767480;78;20985;-58
2021/06/29 03:58:13;;;;;;;17.57;8.25;;;;;;;23.74;64.70;100890.36;1774616;78;21064;-58
2021/06/29 04:00:40;;;;;;;12.88;9.13;;;;;;;23.83;64.50;100890.56;1768076;79;21761;-58
2021/06/29 04:03:07;;;;;;;15.35;9.00;;;;;;;23.88;64.25;100886.90;1772870;78;21028;-58
2021/06/29 04:05:33;;;;;;;12.00;8.48;;;;;;;23.96;63.99;100882.11;1767846;78;20878;-58
2021/06/29 04:08:00;;;;;;;16.05;8.83;;;;;;;24.03;63.50;100884.67;1761942;78;21052;-58
2021/06/29 04:10:26;;;;;;;13.62;9.10;;;;;;;24.12;63.34;100872.02;1761443;78;20937;-58
2021/06/29 04:12:52;;;;;;;13.75;8.93;;;;;;;24.20;63.15;100876.28;1773131;78;21736;-59
2021/06/29 04:15:19;;;;;;;15.18;9.43;;;;;;;24.27;63.14;100880.22;1773332;80;21104;-59
2021/06/29 04:17:45;;;;;;;18.45;9.08;;;;;;;24.36;62.95;100884.48;1772414;78;21562;-58
2021/06/29 04:20:13;;;;;;;12.40;8.40;;;;;;;24.42;62.80;100883.91;1769727;78;21864;-59
2021/06/29 04:22:39;;;;;;;17.35;8.75;;;;;;;24.51;62.61;100884.45;1711093;81;21845;-59
2021/06/29 04:25:07;;;;;;;17.85;9.10;;;;;;;24.61;62.17;100884.45;1728469;81;21605;-61
2021/06/29 04:27:34;;;;;;;26.17;9.30;;;;;;;24.68;62.41;100879.28;1709174;82;21356;-58
2021/06/29 04:30:00;;;;;;;23.05;9.45;;;;;;;24.72;62.57;100878.83;1716461;82;20963;-60
2021/06/29 04:32:27;;;;;;;24.50;10.32;;;;;;;24.75;62.31;100880.45;1730330;80;21025;-59
2021/06/29 04:34:53;;;;;;;33.88;10.15;;;;;;;24.78;62.13;100877.42;1739460;80;20966;-59
2021/06/29 04:37:20;;;;;;;26.10;9.78;;;;;;;24.86;61.91;100873.45;1749422;80;21120;-59
2021/06/29 04:39:46;;;;;;;25.17;10.82;;;;;;;24.99;61.59;100879.16;1746782;80;21009;-58
2021/06/29 04:42:13;;;;;;;33.75;9.75;;;;;;;25.12;61.60;100875.62;1738970;80;21053;-58
2021/06/29 04:44:40;;;;;;;21.90;9.43;;;;;;;25.24;61.08;100875.44;1740956;79;21023;-59
2021/06/29 04:47:07;;;;;;;16.95;7.95;;;;;;;25.36;60.76;100876.14;1753491;79;21541;-59
2021/06/29 04:49:34;;;;;;;18.15;8.03;;;;;;;25.51;59.72;100877.93;1752345;80;21929;-59
2021/06/29 04:52:00;;;;;;;17.55;7.95;;;;;;;25.63;58.85;100875.88;1699019;81;20978;-58
2021/06/29 04:54:26;;;;;;;15.13;7.97;;;;;;;25.79;58.25;100884.87;1741283;79;21559;-57
2021/06/29 04:56:53;;;;;;;10.45;7.05;;;;;;;25.95;57.25;100882.84;1747743;80;21067;-58
2021/06/29 04:59:19;;;;;;;14.18;7.50;;;;;;;26.11;56.71;100879.44;1745585;79;20969;-58
2021/06/29 05:01:46;;;;;;;16.37;6.95;;;;;;;26.22;56.15;100880.65;1755462;79;21108;-58
2021/06/29 05:04:12;;;;;;;18.73;6.85;;;;;;;26.33;55.09;100886.44;1746878;79;21042;-58
2021/06/29 05:06:39;;;;;;;14.15;7.45;;;;;;;26.51;54.63;100887.83;1730097;80;20996;-59
2021/06/29 05:09:05;;;;;;;19.32;8.28;;;;;;;26.73;53.86;100889.77;1759339;79;21446;-59
2021/06/29 05:11:32;;;;;;;12.98;7.15;;;;;;;26.91;52.44;100889.80;1751109;78;21301;-59
2021/06/29 05:13:59;;;;;;;9.40;6.50;;;;;;;27.07;51.38;100888.22;1742106;79;21140;-59
2021/06/29 05:16:25;;;;;;;12.28;6.45;;;;;;;27.21;50.22;100893.66;1745677;80;20928;-59
2021/06/29 05:18:52;;;;;;;10.30;6.28;;;;;;;27.32;49.57;100894.79;1746813;80;20972;-58
2021/06/29 05:21:19;;;;;;;7.90;5.60;;;;;;;27.43;48.64;100884.03;1745558;79;20993;-59
2021/06/29 05:23:45;;;;;;;9.68;6.00;;;;;;;27.50;47.94;100891.10;1752483;79;20971;-58
2021/06/29 05:26:12;;;;;;;11.45;6.45;;;;;;;27.55;47.87;100892.91;1754466;80;21064;-58
2021/06/29 05:28:38;;;;;;;8.75;6.30;;;;;;;27.65;48.12;100892.27;1752727;79;21505;-58
2021/06/29 05:31:05;;;;;;;19.85;6.47;;;;;;;27.74;47.70;100894.06;1759792;79;21011;-58
2021/06/29 05:33:31;;;;;;;12.20;6.12;;;;;;;27.86;48.19;100897.90;1745532;79;20937;-58
2021/06/29 05:35:58;;;;;;;11.12;6.55;;;;;;;27.98;48.06;100888.83;1757196;78;20997;-59
2021/06/29 05:38:24;;;;;;;13.00;7.12;;;;;;;28.11;48.31;100889.73;1755172;79;21105;-60
2021/06/29 05:40:51;;;;;;;11.25;7.20;;;;;;;28.17;48.76;100891.86;1756341;79;20977;-59
2021/06/29 05:43:18;;;;;;;12.60;7.28;;;;;;;28.19;49.06;100897.22;1787556;78;22736;-59
2021/06/29 05:45:44;;;;;;;16.42;7.47;;;;;;;28.17;49.51;100895.98;1773367;78;20997;-60
2021/06/29 05:48:14;;;;;;;17.32;7.12;;;;;;;28.19;49.55;100899.47;1779176;78;21358;-58
2021/06/29 05:50:40;;;;;;;24.23;10.58;;;;;;;28.26;50.13;100892.25;1770815;78;21104;-60
2021/06/29 05:53:06;;;;;;;26.75;11.18;;;;;;;28.33;51.05;100901.22;1771744;79;20862;-60
2021/06/29 05:55:33;;;;;;;15.88;10.03;;;;;;;28.44;50.65;100899.55;1779286;78;21529;-60
2021/06/29 05:58:00;;;;;;;15.03;8.83;;;;;;;28.57;49.86;100900.44;1775421;78;20890;-60
2021/06/29 06:00:26;;;;;;;18.20;8.80;;;;;;;28.68;50.03;100893.20;1768634;78;21395;-61
2021/06/29 06:02:53;;;;;;;17.67;8.98;;;;;;;28.80;51.13;100902.05;1769632;78;21620;-62
2021/06/29 06:05:20;;;;;;;23.20;8.88;;;;;;;28.89;51.68;100902.92;1771071;78;21035;-59
2021/06/29 06:07:46;;;;;;;12.50;8.40;;;;;;;28.95;52.05;100895.86;1772754;78;21581;-61
2021/06/29 06:10:14;;;;;;;14.07;8.40;;;;;;;29.08;51.94;100903.12;1764653;78;21423;-63
2021/06/29 06:12:40;;;;;;;15.28;8.00;;;;;;;29.20;51.65;100904.14;1770704;78;21016;-61
2021/06/29 06:15:08;;;;;;;17.50;7.97;;;;;;;29.29;50.74;100909.48;1765262;78;21739;-59
2021/06/29 06:17:37;;;;;;;13.60;7.70;;;;;;;29.36;50.23;100912.41;1765177;78;20974;-60
2021/06/29 06:20:06;;;;;;;17.27;7.80;;;;;;;29.44;49.60;100911.05;1763824;78;21052;-60
2021/06/29 06:22:33;;;;;;;15.70;7.60;;;;;;;29.57;49.04;100909.13;1767312;78;21043;-59
2021/06/29 06:25:04;;;;;;;9.85;7.12;;;;;;;29.73;48.55;100904.61;1767103;78;21427;-59
2021/06/29 06:27:31;;;;;;;15.05;7.62;;;;;;;29.90;47.77;100904.03;1765032;78;21264;-59
2021/06/29 06:29:58;;;;;;;14.35;6.90;;;;;;;30.04;47.50;100905.22;1769072;79;21474;-59
2021/06/29 06:32:26;;;;;;;9.70;5.60;;;;;;;30.14;46.96;100906.39;1770319;78;20978;-59
2021/06/29 06:34:52;;;;;;;7.72;5.03;;;;;;;30.19;44.23;100908.63;1770432;78;21032;-60
2021/06/29 06:37:19;;;;;;;6.17;5.12;;;;;;;30.23;42.43;100902.56;1771184;78;21062;-58
2021/06/29 06:39:46;;;;;;;9.10;5.50;;;;;;;30.29;41.44;100903.22;1770229;78;21529;-59
2021/06/29 06:42:14;;;;;;;7.58;4.80;;;;;;;30.39;42.01;100909.03;1765196;78;21031;-60
2021/06/29 06:44:40;;;;;;;9.65;4.50;;;;;;;30.46;40.92;100904.52;1768959;78;21647;-58
2021/06/29 06:47:07;;;;;;;7.28;6.05;;;;;;;30.45;39.46;100906.95;1771562;78;20996;-60
2021/06/29 06:49:34;;;;;;;8.23;6.80;;;;;;;30.42;41.24;100907.31;1765060;78;21013;-59
2021/06/29 06:52:01;;;;;;;12.50;7.78;;;;;;;30.45;43.90;100909.17;1770949;78;22333;-58
2021/06/29 06:54:27;;;;;;;8.90;7.30;;;;;;;30.52;45.61;100906.55;1770693;78;21051;-58
2021/06/29 06:56:54;;;;;;;11.30;8.03;;;;;;;30.56;45.85;100904.28;1769221;78;20945;-59
2021/06/29 06:59:20;;;;;;;11.03;8.43;;;;;;;30.61;46.27;100910.63;1766602;78;21357;-59
2021/06/29 07:01:48;;;;;;;10.53;8.40;;;;;;;30.61;46.85;100907.86;1766253;78;20991;-60
2021/06/29 07:04:16;;;;;;;10.95;8.25;;;;;;;30.62;46.77;100916.53;1767958;79;21949;-59
2021/06/29 07:06:43;;;;;;;12.78;7.97;;;;;;;30.64;47.06;100911.71;1768138;79;20973;-59
2021/06/29 07:09:10;;;;;;;9.85;8.13;;;;;;;30.68;46.84;100919.98;1762609;78;20961;-60
2021/06/29 07:11:37;;;;;;;9.73;8.00;;;;;;;30.67;46.60;100914.95;1770361;78;21393;-58
2021/06/29 07:14:04;;;;;;;11.38;8.70;;;;;;;30.63;46.68;100916.91;1767965;78;21009;-59
2021/06/29 07:16:30;;;;;;;11.22;9.83;;;;;;;30.54;47.04;100920.20;1767103;78;21637;-61
2021/06/29 07:19:00;;;;;;;11.90;10.28;;;;;;;30.42;48.56;100919.76;1768601;78;21288;-58
2021/06/29 07:21:30;;;;;;;13.10;9.65;;;;;;;30.37;48.96;100918.03;1768366;78;20982;-58
2021/06/29 07:23:59;;;;;;;10.98;8.40;;;;;;;30.36;48.79;100914.92;1766129;78;21746;-59
2021/06/29 07:26:26;;;;;;;16.80;8.18;;;;;;;30.35;47.94;100911.31;1767869;78;21020;-59
2021/06/29 07:28:52;;;;;;;13.65;7.85;;;;;;;30.36;47.89;100914.92;1769922;78;21911;-58
2021/06/29 07:31:20;;;;;;;15.10;7.90;;;;;;;30.34;46.78;100912.36;1769862;77;20996;-59
2021/06/29 07:33:47;;;;;;;12.05;7.42;;;;;;;30.36;46.63;100915.80;1765680;78;20969;-59
2021/06/29 07:36:15;;;;;;;9.55;7.20;;;;;;;30.39;46.33;100917.33;1771035;77;20941;-60
2021/06/29 07:38:44;;;;;;;10.72;7.42;;;;;;;30.42;46.21;100920.60;1764693;78;20949;-60
2021/06/29 07:41:13;;;;;;;10.00;6.75;;;;;;;30.47;45.61;100920.57;1765843;78;21081;-59
2021/06/29 07:43:40;;;;;;;13.00;7.17;;;;;;;30.56;45.17;100916.20;1766006;78;20937;-60
2021/06/29 07:46:06;;;;;;;10.88;6.87;;;;;;;30.66;44.80;100913.77;1768929;78;21049;-65
2021/06/29 07:48:34;;;;;;;13.78;6.95;;;;;;;30.75;44.18;100913.20;1770664;78;21045;-66
2021/06/29 07:51:01;;;;;;;15.53;7.15;;;;;;;30.81;44.33;100914.67;1778366;78;20923;-64
2021/06/29 07:53:28;;;;;;;9.80;6.00;;;;;;;30.89;43.58;100916.53;1768423;78;21070;-67
2021/06/29 07:55:55;;;;;;;9.05;6.53;;;;;;;30.93;43.16;100922.03;1762891;78;20951;-64
2021/06/29 07:58:22;;;;;;;8.30;6.62;;;;;;;30.97;43.19;100914.23;1762376;78;20887;-66
2021/06/29 08:00:50;;;;;;;11.03;6.75;;;;;;;31.03;43.27;100920.40;1765380;78;21013;-66
2021/06/29 08:03:17;;;;;;;6.35;5.70;;;;;;;31.13;42.91;100918.77;1761760;78;21419;-66
2021/06/29 08:05:43;;;;;;;7.03;5.87;;;;;;;31.22;42.87;100919.08;1760368;78;21755;-64
2021/06/29 08:08:11;;;;;;;8.78;6.22;;;;;;;31.29;42.91;100926.13;1767223;78;22077;-65
2021/06/29 08:10:38;;;;;;;8.13;5.95;;;;;;;31.33;42.88;100926.59;1763083;78;21044;-66
2021/06/29 08:13:07;;;;;;;10.20;6.20;;;;;;;31.36;42.74;100928.47;1769389;78;21080;-67
2021/06/29 08:15:34;;;;;;;6.85;6.17;;;;;;;31.34;42.69;100927.80;1766897;78;21002;-68
2021/06/29 08:18:01;;;;;;;8.63;6.08;;;;;;;31.29;42.65;100926.13;1774902;78;21099;-66
2021/06/29 08:20:28;;;;;;;11.45;5.83;;;;;;;31.27;42.23;100925.42;1770825;78;20901;-66
2021/06/29 08:22:55;;;;;;;8.23;5.55;;;;;;;31.24;42.08;100932.22;1772536;78;20971;-67
2021/06/29 08:25:23;;;;;;;11.57;5.90;;;;;;;31.28;41.69;100922.48;1769583;78;20988;-61
2021/06/29 08:27:51;;;;;;;7.78;5.72;;;;;;;31.32;40.95;100920.20;1760476;78;21049;-59
2021/06/29 08:30:20;;;;;;;12.58;5.83;;;;;;;31.29;40.95;100920.59;1761784;78;22241;-61
2021/06/29 08:32:55;;;;;;;9.20;5.70;;;;;;;31.26;41.59;100920.93;1761928;78;21049;-69
2021/06/29 08:35:27;;;;;;;8.60;5.58;;;;;;;31.24;41.58;100920.27;1749470;78;20897;-66
2021/06/29 08:37:54;;;;;;;6.95;5.10;;;;;;;31.23;41.81;100924.08;1761816;78;21023;-60
2021/06/29 08:40:22;;;;;;;7.80;5.42;;;;;;;31.24;41.36;100923.03;1773095;78;20934;-60
2021/06/29 08:42:49;;;;;;;7.92;5.12;;;;;;;31.22;40.79;100911.28;1769848;77;21100;-60
2021/06/29 08:45:16;;;;;;;10.03;5.08;;;;;;;31.18;40.37;100909.91;1780025;78;20961;-59
2021/06/29 08:47:43;;;;;;;8.93;5.28;;;;;;;31.15;39.22;100920.31;1776240;78;21881;-59
2021/06/29 08:50:13;;;;;;;6.83;5.30;;;;;;;31.20;39.38;100916.15;1772289;78;20988;-60
2021/06/29 08:52:40;;;;;;;5.80;5.08;;;;;;;31.24;39.56;100910.57;1773135;78;21000;-60
2021/06/29 08:55:09;;;;;;;10.15;5.20;;;;;;;31.28;39.74;100904.98;1772399;78;21482;-59
2021/06/29 08:57:35;;;;;;;5.20;4.70;;;;;;;31.27;40.38;100908.30;1774830;78;21119;-60
2021/06/29 09:00:09;;;;;;;9.68;4.78;;;;;;;31.26;40.41;100909.86;1772690;78;21731;-60
2021/06/29 09:02:39;;;;;;;7.73;4.60;;;;;;;31.27;40.42;100916.61;1746460;78;21965;-61
2021/06/29 09:05:07;;;;;;;8.48;4.53;;;;;;;31.25;40.91;100910.39;1751133;78;22474;-59
2021/06/29 09:07:34;;;;;;;6.33;4.72;;;;;;;31.21;41.43;100908.18;1766869;78;21574;-58
2021/06/29 09:10:04;;;;;;;9.45;4.80;;;;;;;31.16;42.09;100904.03;1737555;78;21032;-59
2021/06/29 09:12:45;;;;;;;10.00;5.15;;;;;;;31.14;42.63;100909.41;1772253;78;20996;-66
2021/06/29 09:15:41;;;;;;;11.50;5.03;;;;;;;31.10;42.68;100908.94;1774066;78;20881;-67
2021/06/29 09:18:24;;;;;;;7.35;4.72;;;;;;;31.07;42.48;100896.86;1779564;78;21020;-68
2021/06/29 09:21:01;;;;;;;7.40;4.67;;;;;;;31.03;41.75;100891.33;1779162;78;21065;-65
2021/06/29 09:23:34;;;;;;;5.03;4.53;;;;;;;30.96;41.45;100898.67;1776387;78;21100;-68
2021/06/29 09:26:11;;;;;;;7.55;5.00;;;;;;;30.83;42.19;100897.37;1775269;78;21347;-68
2021/06/29 09:28:47;;;;;;;6.12;4.78;;;;;;;30.68;42.84;100894.53;1779269;78;21005;-68
2021/06/29 09:31:20;;;;;;;9.10;5.12;;;;;;;30.54;42.56;100892.01;1776712;78;21434;-68
2021/06/29 09:33:53;;;;;;;9.73;4.37;;;;;;;30.41;42.47;100898.67;1775160;78;21968;-69
2021/06/29 09:36:23;;;;;;;9.23;4.92;;;;;;;30.28;43.37;100895.97;1776387;78;21060;-67
2021/06/29 09:38:57;;;;;;;7.45;4.92;;;;;;;30.21;43.64;100899.13;1773236;78;20997;-60
2021/06/29 09:41:29;;;;;;;5.67;4.83;;;;;;;30.18;44.00;100888.42;1773123;78;21564;-61
2021/06/29 09:44:04;;;;;;;7.50;4.75;;;;;;;30.16;44.24;100889.97;1760515;78;21801;-59
2021/06/29 09:46:30;;;;;;;;;;;;;;;30.12;44.65;100886.36;1752395;80;21114;-62
2021/06/29 09:49:11;;;;;;;8.08;5.00;;;;;;;30.07;44.60;100890.19;1758877;80;20195;-68
2021/06/29 09:51:40;;;;;;;11.15;5.05;;;;;;;30.04;44.89;100883.64;1746957;79;21771;-67
2021/06/29 09:54:10;;;;;;;7.70;5.28;;;;;;;30.06;45.59;100884.32;1762026;79;21052;-72
2021/06/29 09:56:41;;;;;;;12.50;5.30;;;;;;;30.06;46.18;100880.17;1754025;80;20918;-67
2021/06/29 09:59:24;;;;;;;5.28;4.78;;;;;;;30.01;46.34;100887.58;1763478;79;21062;-68
2021/06/29 10:02:08;;;;;;;12.28;5.72;;;;;;;29.93;46.28;100881.56;1761688;80;21044;-68
2021/06/29 10:04:35;;;;;;;7.22;5.22;;;;;;;29.83;45.71;100882.30;1733490;80;21457;-69
2021/06/29 10:07:17;;;;;;;14.70;5.50;;;;;;;29.70;45.82;100885.09;1757861;79;20922;-69
2021/06/29 10:09:50;;;;;;;8.50;5.20;;;;;;;29.60;46.85;100870.63;1758790;79;21419;-68
2021/06/29 10:12:25;;;;;;;7.90;5.37;;;;;;;29.56;47.94;100881.70;1702805;80;21116;-61
2021/06/29 10:14:52;;;;;;;8.20;5.53;;;;;;;29.50;48.42;100869.45;1758275;79;20977;-62
2021/06/29 10:17:19;;;;;;;9.83;5.33;;;;;;;29.49;48.49;100873.75;1760783;79;21116;-60
2021/06/29 10:20:10;;;;;;;7.62;5.10;;;;;;;29.47;48.46;100874.45;1760568;79;21412;-60
2021/06/29 10:22:18;;;;;;;8.05;5.42;;;;;;;29.44;48.56;100872.38;1760235;79;20909;-61
2021/06/29 10:24:47;;;;;;;6.72;5.30;;;;;;;29.44;47.92;100870.16;1753714;80;21154;-62
2021/06/29 10:27:14;;;;;;;8.50;5.83;;;;;;;29.49;47.02;100869.61;1763148;79;20972;-70
2021/06/29 10:29:41;;;;;;;7.85;5.70;;;;;;;29.51;46.65;100870.30;1765502;79;21483;-71
2021/06/29 10:32:13;;;;;;;11.43;5.87;;;;;;;29.53;47.22;100862.72;1761374;79;21037;-70
2021/06/29 10:34:40;;;;;;;10.88;6.28;;;;;;;29.54;47.44;100872.73;1763821;79;21362;-70
2021/06/29 10:37:07;;;;;;;14.53;6.50;;;;;;;29.52;49.51;100873.43;1754137;79;21515;-60
2021/06/29 10:39:36;;;;;;;13.80;6.30;;;;;;;29.44;51.58;100871.55;1753459;79;21456;-60
2021/06/29 10:42:16;;;;;;;12.90;6.37;;;;;;;29.38;51.46;100876.33;1761210;79;21284;-60
2021/06/29 10:44:46;;;;;;;13.93;6.35;;;;;;;29.34;51.97;100872.20;1737229;78;21016;-61
2021/06/29 10:47:29;;;;;;;8.20;6.25;;;;;;;29.34;51.47;100868.94;1768701;78;21070;-60
2021/06/29 10:50:01;;;;;;;9.75;6.62;;;;;;;29.31;51.07;100865.15;1771211;78;21925;-60
2021/06/29 10:52:35;;;;;;;11.00;6.72;;;;;;;29.27;52.35;100872.03;1776133;78;20976;-61
2021/06/29 10:55:25;;;;;;;10.90;7.50;;;;;;;29.25;53.24;100874.11;1769998;78;21001;-60
2021/06/29 10:57:55;;;;;;;12.53;6.80;;;;;;;29.25;54.27;100879.12;1767256;78;20978;-59
2021/06/29 11:00:34;;;;;;;8.63;5.60;;;;;;;29.16;53.78;100876.01;1765772;78;21593;-60
2021/06/29 11:03:06;;;;;;;15.23;5.92;;;;;;;29.05;51.94;100865.33;1764524;78;21674;-69
2021/06/29 11:05:42;;;;;;;12.78;5.72;;;;;;;28.96;50.58;100858.95;1765836;78;21073;-68
2021/06/29 11:08:16;;;;;;;9.08;4.90;;;;;;;28.95;50.18;100862.75;1738443;78;21474;-71
2021/06/29 11:10:49;;;;;;;13.60;5.78;;;;;;;28.97;49.92;100855.16;1776791;78;21013;-68
2021/06/29 11:13:43;;;;;;;10.13;5.47;;;;;;;29.01;50.06;100863.42;1779012;78;20890;-69
2021/06/29 11:16:10;;;;;;;14.23;5.70;;;;;;;29.06;49.21;100861.00;1779560;78;21401;-67
2021/06/29 11:18:47;;;;;;;9.85;5.60;;;;;;;29.08;48.81;100855.33;1779692;78;21596;-67
2021/06/29 11:21:26;;;;;;;11.80;5.67;;;;;;;29.05;49.09;100851.54;1777608;78;21475;-66
2021/06/29 11:23:53;;;;;;;8.48;5.42;;;;;;;28.97;49.00;100857.41;1783093;78;21563;-67
2021/06/29 11:26:20;;;;;;;5.65;5.05;;;;;;;28.91;49.32;100846.20;1776271;78;21520;-65